Archimede — IXZR — position and weather

sailwx.info

Track history (hours):
 
Tides and Currents Weather Stations Pressure Air Temp Water Temp Dewpoint Dewpoint Depression Visibility Wind Speed Wind Dir Waves Ship Positions

Archimede

Last reported at 2014-Dec-20 06:11 UTC. Time now 2014-Dec-20 13:41 UTC.
Position N 38°13' E 015°36'.

; draft 3.1 m.

Type: Passenger vessel. MMSI: 247054700.

Date/timePositionNaut miles runAvg speedWind from/ knotsBaromVisibWave heightAir tempDewpointWater temp
2014-Dec-20 06:11N 38°13' E 015°36'1 0.1
2014-Dec-19 18:14N 38°13' E 015°34'1 1.8
2014-Dec-19 17:33N 38°13' E 015°36'2 1.5
2014-Dec-19 16:28N 38°13' E 015°38'2 0.7
2014-Dec-19 13:08N 38°13' E 015°35'2 4.0
2014-Dec-19 12:33N 38°13' E 015°38'1 1.5
2014-Dec-19 11:33N 38°13' E 015°36'1 0.1
2014-Dec-18 08:33N 38°13' E 015°38'0 0.0
2014-Dec-18 07:33N 38°13' E 015°38'0 0.0
2014-Dec-17 14:31N 38°13' E 015°38'0 0.0
2014-Dec-17 13:19N 38°13' E 015°38'0 0.0
2014-Dec-17 06:22N 38°13' E 015°38'1 0.0
2014-Dec-16 14:23N 38°13' E 015°37'1 0.5
2014-Dec-16 12:32N 38°13' E 015°38'0 0.3
2014-Dec-16 11:15N 38°14' E 015°38'1 0.1
2014-Dec-15 09:30N 38°13' E 015°36'2 0.0
2014-Dec-13 14:10N 38°13' E 015°38'0 0.0
2014-Dec-13 12:32N 38°13' E 015°38'3 0.1
2014-Dec-12 06:25N 38°13' E 015°34'1 0.1
2014-Dec-11 15:34N 38°13' E 015°36'1 0.6
2014-Dec-11 14:16N 38°13' E 015°35'2 3.0
2014-Dec-11 13:28N 38°13' E 015°38'0 0.0
2014-Dec-11 12:33N 38°13' E 015°38'0 0.4
2014-Dec-11 11:30N 38°14' E 015°38'3 2.4
2014-Dec-11 10:19N 38°13' E 015°34'3 3.6
2014-Dec-11 09:28N 38°13' E 015°38'0 0.0
2014-Dec-11 08:32N 38°13' E 015°38'  
Track history (hours):
 
Tides and Currents Weather Stations Pressure Air Temp Water Temp Dewpoint Dewpoint Depression Visibility Wind Speed Wind Dir Waves Ship Positions

Archimede

Last reported at 2014-Dec-20 06:11 UTC. Time now 2014-Dec-20 13:41 UTC.
Position N 38°13' E 015°36'.

; draft 3.1 m.

Type: Passenger vessel. MMSI: 247054700.

Date/timePositionNaut miles runAvg speedWind from/ knotsBaromVisibWave heightAir tempDewpointWater temp
2014-Dec-20 06:11N 38°13' E 015°36'1 0.1
2014-Dec-19 18:14N 38°13' E 015°34'1 1.8
2014-Dec-19 17:33N 38°13' E 015°36'2 1.5
2014-Dec-19 16:28N 38°13' E 015°38'2 0.7
2014-Dec-19 13:08N 38°13' E 015°35'2 4.0
2014-Dec-19 12:33N 38°13' E 015°38'1 1.5
2014-Dec-19 11:33N 38°13' E 015°36'1 0.1
2014-Dec-18 08:33N 38°13' E 015°38'0 0.0
2014-Dec-18 07:33N 38°13' E 015°38'0 0.0
2014-Dec-17 14:31N 38°13' E 015°38'0 0.0
2014-Dec-17 13:19N 38°13' E 015°38'0 0.0
2014-Dec-17 06:22N 38°13' E 015°38'1 0.0
2014-Dec-16 14:23N 38°13' E 015°37'1 0.5
2014-Dec-16 12:32N 38°13' E 015°38'0 0.3
2014-Dec-16 11:15N 38°14' E 015°38'1 0.1
2014-Dec-15 09:30N 38°13' E 015°36'2 0.0
2014-Dec-13 14:10N 38°13' E 015°38'0 0.0
2014-Dec-13 12:32N 38°13' E 015°38'3 0.1
2014-Dec-12 06:25N 38°13' E 015°34'1 0.1
2014-Dec-11 15:34N 38°13' E 015°36'1 0.6
2014-Dec-11 14:16N 38°13' E 015°35'2 3.0
2014-Dec-11 13:28N 38°13' E 015°38'0 0.0
2014-Dec-11 12:33N 38°13' E 015°38'0 0.4
2014-Dec-11 11:30N 38°14' E 015°38'3 2.4
2014-Dec-11 10:19N 38°13' E 015°34'3 3.6
2014-Dec-11 09:28N 38°13' E 015°38'0 0.0
2014-Dec-11 08:32N 38°13' E 015°38'  

Dump ship's entire track history